sensor_id;sensor_type;location;lat;lon;timestamp;pressure;altitude;pressure_sealevel;temperature;humidity
70143;BME280;57509;43.054;-0.040;2022-08-01T00:00:55;97382.44;;;32.53;38.04
70143;BME280;57509;43.054;-0.040;2022-08-01T00:03:31;97394.44;;;32.76;37.34
70143;BME280;57509;43.054;-0.040;2022-08-01T00:06:01;97387.78;;;32.86;37.48
70143;BME280;57509;43.054;-0.040;2022-08-01T00:08:34;97387.72;;;32.91;37.13
70143;BME280;57509;43.054;-0.040;2022-08-01T00:11:02;97392.03;;;32.97;36.89
70143;BME280;57509;43.054;-0.040;2022-08-01T00:13:27;97388.09;;;32.98;36.45
70143;BME280;57509;43.054;-0.040;2022-08-01T00:15:53;97366.00;;;32.74;37.34
70143;BME280;57509;43.054;-0.040;2022-08-01T00:18:25;97386.63;;;32.42;37.85
70143;BME280;57509;43.054;-0.040;2022-08-01T00:20:51;97382.25;;;32.49;37.28
70143;BME280;57509;43.054;-0.040;2022-08-01T00:23:20;97379.50;;;32.58;37.67
70143;BME280;57509;43.054;-0.040;2022-08-01T00:25:48;97372.22;;;32.48;37.77
70143;BME280;57509;43.054;-0.040;2022-08-01T00:28:24;97383.41;;;32.71;37.11
70143;BME280;57509;43.054;-0.040;2022-08-01T00:30:52;97377.19;;;32.74;37.23
70143;BME280;57509;43.054;-0.040;2022-08-01T00:33:22;97381.19;;;32.81;37.45
70143;BME280;57509;43.054;-0.040;2022-08-01T00:35:50;97379.13;;;32.87;37.40
70143;BME280;57509;43.054;-0.040;2022-08-01T00:38:25;97374.06;;;32.89;36.17
70143;BME280;57509;43.054;-0.040;2022-08-01T00:40:53;97380.03;;;32.96;36.24
70143;BME280;57509;43.054;-0.040;2022-08-01T00:43:29;97374.56;;;32.91;37.18
70143;BME280;57509;43.054;-0.040;2022-08-01T00:45:57;97368.69;;;32.79;37.05
70143;BME280;57509;43.054;-0.040;2022-08-01T00:48:33;97361.94;;;32.80;36.79
70143;BME280;57509;43.054;-0.040;2022-08-01T00:51:17;97358.81;;;32.81;35.90
70143;BME280;57509;43.054;-0.040;2022-08-01T00:53:42;97367.53;;;32.80;36.31
70143;BME280;57509;43.054;-0.040;2022-08-01T00:56:20;97383.41;;;32.71;36.42
70143;BME280;57509;43.054;-0.040;2022-08-01T00:58:56;97360.53;;;32.69;36.88
70143;BME280;57509;43.054;-0.040;2022-08-01T01:01:37;97370.38;;;32.66;36.89
70143;BME280;57509;43.054;-0.040;2022-08-01T01:04:05;97363.53;;;32.72;36.49
70143;BME280;57509;43.054;-0.040;2022-08-01T01:06:38;97368.91;;;32.69;35.80
70143;BME280;57509;43.054;-0.040;2022-08-01T01:09:47;97362.72;;;32.72;35.82
70143;BME280;57509;43.054;-0.040;2022-08-01T01:12:29;97365.50;;;32.72;36.22
70143;BME280;57509;43.054;-0.040;2022-08-01T01:15:06;97376.41;;;32.60;35.75
70143;BME280;57509;43.054;-0.040;2022-08-01T01:17:55;97383.66;;;32.61;35.73
70143;BME280;57509;43.054;-0.040;2022-08-01T01:21:13;97387.06;;;32.58;35.83
70143;BME280;57509;43.054;-0.040;2022-08-01T01:23:44;97372.44;;;32.24;37.21
70143;BME280;57509;43.054;-0.040;2022-08-01T01:26:36;97374.91;;;32.26;36.28
70143;BME280;57509;43.054;-0.040;2022-08-01T01:29:42;97368.06;;;32.32;36.80
70143;BME280;57509;43.054;-0.040;2022-08-01T01:32:22;97373.47;;;32.42;36.27
70143;BME280;57509;43.054;-0.040;2022-08-01T01:35:03;97366.34;;;32.36;36.08
70143;BME280;57509;43.054;-0.040;2022-08-01T01:37:41;97356.63;;;32.20;37.16
70143;BME280;57509;43.054;-0.040;2022-08-01T01:40:13;97360.13;;;32.25;36.81
70143;BME280;57509;43.054;-0.040;2022-08-01T01:42:39;97361.59;;;32.23;37.22
70143;BME280;57509;43.054;-0.040;2022-08-01T01:45:24;97359.13;;;32.08;36.95
70143;BME280;57509;43.054;-0.040;2022-08-01T01:47:50;97351.28;;;32.10;37.39
70143;BME280;57509;43.054;-0.040;2022-08-01T01:50:27;97357.38;;;32.12;36.60
70143;BME280;57509;43.054;-0.040;2022-08-01T01:53:04;97353.56;;;32.08;37.42
70143;BME280;57509;43.054;-0.040;2022-08-01T01:55:45;97355.44;;;31.98;37.20
70143;BME280;57509;43.054;-0.040;2022-08-01T01:58:26;97344.38;;;31.93;37.14
70143;BME280;57509;43.054;-0.040;2022-08-01T02:01:06;97354.41;;;31.94;37.90
70143;BME280;57509;43.054;-0.040;2022-08-01T02:03:46;97344.28;;;31.98;37.25
70143;BME280;57509;43.054;-0.040;2022-08-01T02:06:21;97348.28;;;32.06;38.19
70143;BME280;57509;43.054;-0.040;2022-08-01T02:09:03;97330.22;;;32.03;37.62
70143;BME280;57509;43.054;-0.040;2022-08-01T02:11:46;97334.53;;;32.10;37.64
70143;BME280;57509;43.054;-0.040;2022-08-01T02:14:23;97330.06;;;32.09;36.94
70143;BME280;57509;43.054;-0.040;2022-08-01T02:16:50;97329.56;;;32.07;36.99
70143;BME280;57509;43.054;-0.040;2022-08-01T02:19:29;97338.66;;;32.12;37.23
70143;BME280;57509;43.054;-0.040;2022-08-01T02:22:14;97330.91;;;32.09;37.13
70143;BME280;57509;43.054;-0.040;2022-08-01T02:27:56;97343.63;;;32.01;37.52
70143;BME280;57509;43.054;-0.040;2022-08-01T02:30:37;97331.56;;;31.92;38.22
70143;BME280;57509;43.054;-0.040;2022-08-01T02:33:18;97324.41;;;32.00;37.86
70143;BME280;57509;43.054;-0.040;2022-08-01T02:35:58;97327.28;;;32.09;38.23
70143;BME280;57509;43.054;-0.040;2022-08-01T02:38:44;97334.09;;;32.16;37.25
70143;BME280;57509;43.054;-0.040;2022-08-01T02:41:28;97319.00;;;32.17;36.87
70143;BME280;57509;43.054;-0.040;2022-08-01T02:44:07;97334.06;;;32.30;37.63
70143;BME280;57509;43.054;-0.040;2022-08-01T02:46:51;97337.34;;;32.32;36.80
70143;BME280;57509;43.054;-0.040;2022-08-01T02:49:31;97330.53;;;32.38;36.98
70143;BME280;57509;43.054;-0.040;2022-08-01T02:52:17;97322.88;;;32.30;37.20
70143;BME280;57509;43.054;-0.040;2022-08-01T02:55:04;97327.00;;;32.33;37.29
70143;BME280;57509;43.054;-0.040;2022-08-01T02:57:30;97308.97;;;32.16;36.62
70143;BME280;57509;43.054;-0.040;2022-08-01T03:00:03;97322.69;;;32.26;37.59
70143;BME280;57509;43.054;-0.040;2022-08-01T03:02:43;97320.00;;;32.21;37.00
70143;BME280;57509;43.054;-0.040;2022-08-01T03:05:25;97323.00;;;32.25;37.36
70143;BME280;57509;43.054;-0.040;2022-08-01T03:07:58;97333.03;;;32.26;37.64
70143;BME280;57509;43.054;-0.040;2022-08-01T03:10:37;97324.53;;;32.31;37.34
70143;BME280;57509;43.054;-0.040;2022-08-01T03:13:14;97331.47;;;32.34;37.50
70143;BME280;57509;43.054;-0.040;2022-08-01T03:15:52;97317.09;;;32.26;37.60
70143;BME280;57509;43.054;-0.040;2022-08-01T03:18:40;97318.44;;;32.29;36.65
70143;BME280;57509;43.054;-0.040;2022-08-01T03:21:32;97317.50;;;32.34;37.24
70143;BME280;57509;43.054;-0.040;2022-08-01T03:24:11;97324.34;;;32.41;36.56
70143;BME280;57509;43.054;-0.040;2022-08-01T03:26:49;97324.34;;;32.41;36.92
70143;BME280;57509;43.054;-0.040;2022-08-01T03:29:27;97315.63;;;32.43;37.26
70143;BME280;57509;43.054;-0.040;2022-08-01T03:32:06;97297.56;;;32.40;37.42
70143;BME280;57509;43.054;-0.040;2022-08-01T03:34:47;97301.66;;;32.43;37.18
70143;BME280;57509;43.054;-0.040;2022-08-01T03:37:27;97306.94;;;32.44;36.73
70143;BME280;57509;43.054;-0.040;2022-08-01T03:40:11;97305.94;;;32.40;36.67
70143;BME280;57509;43.054;-0.040;2022-08-01T03:42:44;97309.22;;;32.42;37.76
70143;BME280;57509;43.054;-0.040;2022-08-01T03:45:19;97311.69;;;32.44;36.69
70143;BME280;57509;43.054;-0.040;2022-08-01T03:47:52;97314.97;;;32.46;36.95
70143;BME280;57509;43.054;-0.040;2022-08-01T03:50:28;97303.00;;;32.45;37.64
70143;BME280;57509;43.054;-0.040;2022-08-01T03:53:06;97311.91;;;32.47;37.14
70143;BME280;57509;43.054;-0.040;2022-08-01T03:55:33;97297.03;;;32.38;37.14
70143;BME280;57509;43.054;-0.040;2022-08-01T03:58:05;97304.47;;;32.43;37.74
70143;BME280;57509;43.054;-0.040;2022-08-01T04:00:36;97302.59;;;32.38;37.10
70143;BME280;57509;43.054;-0.040;2022-08-01T04:03:22;97302.19;;;32.31;37.51
70143;BME280;57509;43.054;-0.040;2022-08-01T04:06:05;97299.06;;;32.33;37.76
70143;BME280;57509;43.054;-0.040;2022-08-01T04:08:38;97294.31;;;32.33;37.99
70143;BME280;57509;43.054;-0.040;2022-08-01T04:11:21;97301.63;;;32.34;37.17
70143;BME280;57509;43.054;-0.040;2022-08-01T04:14:17;97318.94;;;32.31;37.15
70143;BME280;57509;43.054;-0.040;2022-08-01T04:17:02;97298.38;;;32.27;37.05
70143;BME280;57509;43.054;-0.040;2022-08-01T04:19:40;97310.91;;;32.29;36.77
70143;BME280;57509;43.054;-0.040;2022-08-01T04:22:16;97315.56;;;32.20;37.45
70143;BME280;57509;43.054;-0.040;2022-08-01T04:24:55;97315.69;;;32.15;37.88
70143;BME280;57509;43.054;-0.040;2022-08-01T04:27:43;97321.78;;;32.17;36.89
70143;BME280;57509;43.054;-0.040;2022-08-01T04:30:25;97309.91;;;32.12;37.54
70143;BME280;57509;43.054;-0.040;2022-08-01T04:33:06;97319.66;;;32.00;37.13
70143;BME280;57509;43.054;-0.040;2022-08-01T04:35:38;97310.78;;;31.85;37.89
70143;BME280;57509;43.054;-0.040;2022-08-01T04:38:15;97312.13;;;31.87;37.58
70143;BME280;57509;43.054;-0.040;2022-08-01T04:40:55;97327.09;;;31.91;37.49
70143;BME280;57509;43.054;-0.040;2022-08-01T04:43:46;97322.34;;;32.06;37.82
70143;BME280;57509;43.054;-0.040;2022-08-01T04:46:26;97321.31;;;32.01;37.17
70143;BME280;57509;43.054;-0.040;2022-08-01T04:49:07;97327.31;;;31.95;38.08
70143;BME280;57509;43.054;-0.040;2022-08-01T04:51:37;97330.81;;;32.00;37.41
70143;BME280;57509;43.054;-0.040;2022-08-01T04:54:29;97325.66;;;31.94;37.69
70143;BME280;57509;43.054;-0.040;2022-08-01T04:57:06;97327.41;;;31.76;38.05
70143;BME280;57509;43.054;-0.040;2022-08-01T04:59:44;97333.31;;;31.88;37.50
70143;BME280;57509;43.054;-0.040;2022-08-01T05:02:18;97323.81;;;31.89;36.96
70143;BME280;57509;43.054;-0.040;2022-08-01T05:04:54;97344.88;;;31.95;37.42
70143;BME280;57509;43.054;-0.040;2022-08-01T05:07:32;97336.63;;;31.90;37.55
70143;BME280;57509;43.054;-0.040;2022-08-01T05:10:11;97334.13;;;31.75;37.99
70143;BME280;57509;43.054;-0.040;2022-08-01T05:12:53;97325.22;;;31.73;38.35
70143;BME280;57509;43.054;-0.040;2022-08-01T05:15:18;97339.00;;;31.69;38.21
70143;BME280;57509;43.054;-0.040;2022-08-01T05:17:54;97331.88;;;31.49;38.59
70143;BME280;57509;43.054;-0.040;2022-08-01T05:20:31;97332.44;;;31.19;38.98
70143;BME280;57509;43.054;-0.040;2022-08-01T05:23:07;97345.91;;;31.44;38.65
70143;BME280;57509;43.054;-0.040;2022-08-01T05:25:41;97340.44;;;31.53;39.09
70143;BME280;57509;43.054;-0.040;2022-08-01T05:28:07;97346.00;;;31.53;39.21
70143;BME280;57509;43.054;-0.040;2022-08-01T05:30:33;97345.09;;;31.71;38.93
70143;BME280;57509;43.054;-0.040;2022-08-01T05:32:58;97344.06;;;31.54;38.55
70143;BME280;57509;43.054;-0.040;2022-08-01T05:35:27;97349.84;;;31.71;38.79
70143;BME280;57509;43.054;-0.040;2022-08-01T05:38:01;97352.31;;;31.72;38.72
70143;BME280;57509;43.054;-0.040;2022-08-01T05:40:29;97348.91;;;31.34;38.82
70143;BME280;57509;43.054;-0.040;2022-08-01T05:43:05;97338.19;;;31.55;38.29
70143;BME280;57509;43.054;-0.040;2022-08-01T05:45:31;97358.72;;;31.59;38.37
70143;BME280;57509;43.054;-0.040;2022-08-01T05:48:07;97355.25;;;31.81;38.91
70143;BME280;57509;43.054;-0.040;2022-08-01T05:50:42;97359.97;;;31.67;38.46
70143;BME280;57509;43.054;-0.040;2022-08-01T05:53:27;97360.81;;;31.67;38.62
70143;BME280;57509;43.054;-0.040;2022-08-01T05:56:03;97369.88;;;31.73;39.14
70143;BME280;57509;43.054;-0.040;2022-08-01T05:58:39;97366.09;;;31.83;38.59
70143;BME280;57509;43.054;-0.040;2022-08-01T06:01:16;97373.38;;;31.78;38.11
70143;BME280;57509;43.054;-0.040;2022-08-01T06:03:45;97367.31;;;31.90;38.61
70143;BME280;57509;43.054;-0.040;2022-08-01T06:06:23;97362.28;;;31.92;38.48
70143;BME280;57509;43.054;-0.040;2022-08-01T06:09:06;97366.31;;;31.86;39.07
70143;BME280;57509;43.054;-0.040;2022-08-01T06:11:49;97365.34;;;32.05;38.54
70143;BME280;57509;43.054;-0.040;2022-08-01T06:14:25;97368.13;;;32.18;37.50
70143;BME280;57509;43.054;-0.040;2022-08-01T06:16:56;97362.84;;;32.17;38.79
70143;BME280;57509;43.054;-0.040;2022-08-01T06:19:31;97378.97;;;31.78;38.48
70143;BME280;57509;43.054;-0.040;2022-08-01T06:22:06;97371.66;;;31.55;38.75
70143;BME280;57509;43.054;-0.040;2022-08-01T06:24:35;97367.63;;;31.75;39.25
70143;BME280;57509;43.054;-0.040;2022-08-01T06:27:01;97356.56;;;31.84;38.50
70143;BME280;57509;43.054;-0.040;2022-08-01T06:29:30;97361.44;;;32.06;38.57
70143;BME280;57509;43.054;-0.040;2022-08-01T06:31:59;97367.50;;;32.08;38.25
70143;BME280;57509;43.054;-0.040;2022-08-01T06:34:37;97366.22;;;32.27;37.69
70143;BME280;57509;43.054;-0.040;2022-08-01T06:37:05;97365.72;;;32.39;38.26
70143;BME280;57509;43.054;-0.040;2022-08-01T06:39:41;97357.66;;;32.24;38.47
70143;BME280;57509;43.054;-0.040;2022-08-01T06:42:08;97367.78;;;32.47;37.85
70143;BME280;57509;43.054;-0.040;2022-08-01T06:44:44;97361.91;;;32.58;38.16
70143;BME280;57509;43.054;-0.040;2022-08-01T06:47:12;97365.97;;;32.51;37.02
70143;BME280;57509;43.054;-0.040;2022-08-01T06:49:51;97346.25;;;32.48;37.80
70143;BME280;57509;43.054;-0.040;2022-08-01T06:52:27;97357.41;;;32.48;37.16
70143;BME280;57509;43.054;-0.040;2022-08-01T06:55:03;97356.59;;;32.47;37.35
70143;BME280;57509;43.054;-0.040;2022-08-01T06:57:50;97362.19;;;32.47;37.58
70143;BME280;57509;43.054;-0.040;2022-08-01T07:00:26;97354.41;;;32.44;37.35
70143;BME280;57509;43.054;-0.040;2022-08-01T07:02:56;97354.84;;;32.38;37.87
70143;BME280;57509;43.054;-0.040;2022-08-01T07:05:32;97358.69;;;32.28;37.89
70143;BME280;57509;43.054;-0.040;2022-08-01T07:08:00;97368.00;;;32.37;38.40
70143;BME280;57509;43.054;-0.040;2022-08-01T07:10:25;97365.72;;;32.39;38.28
70143;BME280;57509;43.054;-0.040;2022-08-01T07:12:53;97361.16;;;32.43;37.47
70143;BME280;57509;43.054;-0.040;2022-08-01T07:15:23;97367.13;;;32.50;37.40
70143;BME280;57509;43.054;-0.040;2022-08-01T07:17:54;97352.66;;;32.48;37.83
70143;BME280;57509;43.054;-0.040;2022-08-01T07:20:30;97354.09;;;32.46;37.49
70143;BME280;57509;43.054;-0.040;2022-08-01T07:23:09;97341.28;;;32.45;37.67
70143;BME280;57509;43.054;-0.040;2022-08-01T07:25:47;97344.06;;;32.45;37.40
70143;BME280;57509;43.054;-0.040;2022-08-01T07:28:27;97344.72;;;32.42;37.40
70143;BME280;57509;43.054;-0.040;2022-08-01T07:31:15;97337.16;;;32.42;37.26
70143;BME280;57509;43.054;-0.040;2022-08-01T07:33:53;97336.59;;;32.54;38.26
70143;BME280;57509;43.054;-0.040;2022-08-01T07:36:36;97326.81;;;32.43;37.48
70143;BME280;57509;43.054;-0.040;2022-08-01T07:39:14;97325.16;;;32.42;37.52
70143;BME280;57509;43.054;-0.040;2022-08-01T07:41:52;97339.00;;;32.47;38.42
70143;BME280;57509;43.054;-0.040;2022-08-01T07:44:28;97329.09;;;32.41;38.47
70143;BME280;57509;43.054;-0.040;2022-08-01T07:47:05;97332.59;;;32.46;37.65
70143;BME280;57509;43.054;-0.040;2022-08-01T07:49:43;97327.19;;;32.50;37.97
70143;BME280;57509;43.054;-0.040;2022-08-01T07:52:19;97340.38;;;32.58;37.72
70143;BME280;57509;43.054;-0.040;2022-08-01T07:54:55;97335.44;;;32.55;38.40
70143;BME280;57509;43.054;-0.040;2022-08-01T07:57:41;97327.28;;;32.59;38.56
70143;BME280;57509;43.054;-0.040;2022-08-01T08:00:17;97345.97;;;32.58;38.73
70143;BME280;57509;43.054;-0.040;2022-08-01T08:02:54;97344.53;;;32.61;38.10
70143;BME280;57509;43.054;-0.040;2022-08-01T08:05:31;97346.63;;;32.55;38.04
70143;BME280;57509;43.054;-0.040;2022-08-01T08:08:02;97340.28;;;32.41;38.55
70143;BME280;57509;43.054;-0.040;2022-08-01T08:10:57;97339.84;;;32.34;38.26
70143;BME280;57509;43.054;-0.040;2022-08-01T08:13:48;97339.44;;;32.26;38.96
70143;BME280;57509;43.054;-0.040;2022-08-01T08:16:34;97326.84;;;32.29;38.72
70143;BME280;57509;43.054;-0.040;2022-08-01T08:19:02;97327.88;;;32.19;39.24
70143;BME280;57509;43.054;-0.040;2022-08-01T08:21:28;97332.59;;;32.33;39.42
70143;BME280;57509;43.054;-0.040;2022-08-01T08:24:23;97341.78;;;32.33;39.22
70143;BME280;57509;43.054;-0.040;2022-08-01T08:27:00;97342.22;;;32.26;39.40
70143;BME280;57509;43.054;-0.040;2022-08-01T08:29:29;97336.84;;;32.30;39.41
70143;BME280;57509;43.054;-0.040;2022-08-01T08:31:57;97328.97;;;32.32;39.59
70143;BME280;57509;43.054;-0.040;2022-08-01T08:34:30;97341.72;;;32.38;39.21
70143;BME280;57509;43.054;-0.040;2022-08-01T08:37:09;97333.41;;;32.33;39.26
70143;BME280;57509;43.054;-0.040;2022-08-01T08:39:47;97324.38;;;32.14;39.55
70143;BME280;57509;43.054;-0.040;2022-08-01T08:42:26;97334.56;;;32.32;38.87
70143;BME280;57509;43.054;-0.040;2022-08-01T08:45:05;97331.81;;;32.18;39.21
70143;BME280;57509;43.054;-0.040;2022-08-01T08:47:37;97324.09;;;32.01;39.75
70143;BME280;57509;43.054;-0.040;2022-08-01T08:50:13;97323.72;;;31.81;40.94
70143;BME280;57509;43.054;-0.040;2022-08-01T08:52:39;97326.69;;;31.98;40.65
70143;BME280;57509;43.054;-0.040;2022-08-01T08:55:18;97325.44;;;31.90;40.61
70143;BME280;57509;43.054;-0.040;2022-08-01T08:57:44;97311.19;;;31.64;40.30
70143;BME280;57509;43.054;-0.040;2022-08-01T09:00:11;97324.66;;;31.62;40.75
70143;BME280;57509;43.054;-0.040;2022-08-01T09:02:48;97298.91;;;31.52;40.42
70143;BME280;57509;43.054;-0.040;2022-08-01T09:05:42;97306.47;;;31.37;41.12
70143;BME280;57509;43.054;-0.040;2022-08-01T09:08:20;97303.75;;;31.60;41.04
70143;BME280;57509;43.054;-0.040;2022-08-01T09:10:56;97298.69;;;31.89;40.84
70143;BME280;57509;43.054;-0.040;2022-08-01T09:13:32;97292.59;;;31.73;40.96
70143;BME280;57509;43.054;-0.040;2022-08-01T09:15:57;97293.53;;;31.69;41.89
70143;BME280;57509;43.054;-0.040;2022-08-01T09:18:38;97294.97;;;32.30;40.00
70143;BME280;57509;43.054;-0.040;2022-08-01T09:21:17;97287.75;;;32.15;40.46
70143;BME280;57509;43.054;-0.040;2022-08-01T09:23:54;97288.63;;;32.16;40.53
70143;BME280;57509;43.054;-0.040;2022-08-01T09:26:35;97283.53;;;32.18;39.58
70143;BME280;57509;43.054;-0.040;2022-08-01T09:29:18;97286.44;;;32.49;39.04
70143;BME280;57509;43.054;-0.040;2022-08-01T09:31:52;97276.91;;;32.50;39.86
70143;BME280;57509;43.054;-0.040;2022-08-01T09:34:35;97273.41;;;32.67;39.63
70143;BME280;57509;43.054;-0.040;2022-08-01T09:37:12;97280.09;;;33.11;39.13
70143;BME280;57509;43.054;-0.040;2022-08-01T09:39:54;97276.06;;;32.72;39.88
70143;BME280;57509;43.054;-0.040;2022-08-01T09:42:30;97282.09;;;32.88;39.46
70143;BME280;57509;43.054;-0.040;2022-08-01T09:45:04;97289.53;;;32.92;38.98
70143;BME280;57509;43.054;-0.040;2022-08-01T09:47:51;97291.38;;;33.28;37.75
70143;BME280;57509;43.054;-0.040;2022-08-01T09:50:41;97283.38;;;33.13;38.61
70143;BME280;57509;43.054;-0.040;2022-08-01T09:53:10;97283.19;;;32.78;38.99
70143;BME280;57509;43.054;-0.040;2022-08-01T09:55:40;97285.31;;;33.03;38.99
70143;BME280;57509;43.054;-0.040;2022-08-01T09:58:16;97290.09;;;33.03;39.16
70143;BME280;57509;43.054;-0.040;2022-08-01T10:01:01;97294.50;;;33.35;37.84
70143;BME280;57509;43.054;-0.040;2022-08-01T10:03:37;97292.38;;;33.32;38.49
70143;BME280;57509;43.054;-0.040;2022-08-01T10:06:25;97289.91;;;33.79;37.12
70143;BME280;57509;43.054;-0.040;2022-08-01T10:09:03;97290.31;;;33.46;38.46
70143;BME280;57509;43.054;-0.040;2022-08-01T10:11:30;97296.16;;;33.84;38.24
70143;BME280;57509;43.054;-0.040;2022-08-01T10:14:09;97283.41;;;34.01;37.34
70143;BME280;57509;43.054;-0.040;2022-08-01T10:16:45;97293.47;;;34.19;37.57
70143;BME280;57509;43.054;-0.040;2022-08-01T10:19:15;97281.25;;;34.15;37.32
70143;BME280;57509;43.054;-0.040;2022-08-01T10:21:44;97283.41;;;34.35;37.60
70143;BME280;57509;43.054;-0.040;2022-08-01T10:24:21;97275.97;;;34.83;36.03
70143;BME280;57509;43.054;-0.040;2022-08-01T10:27:01;97268.22;;;34.97;36.24
70143;BME280;57509;43.054;-0.040;2022-08-01T10:29:50;97257.72;;;34.59;35.93
70143;BME280;57509;43.054;-0.040;2022-08-01T10:32:31;97269.53;;;34.91;36.41
70143;BME280;57509;43.054;-0.040;2022-08-01T10:35:08;97269.19;;;35.01;35.92
70143;BME280;57509;43.054;-0.040;2022-08-01T10:37:45;97264.00;;;35.20;35.30
70143;BME280;57509;43.054;-0.040;2022-08-01T10:40:23;97279.75;;;35.51;36.05
70143;BME280;57509;43.054;-0.040;2022-08-01T10:43:01;97268.22;;;35.44;34.43
70143;BME280;57509;43.054;-0.040;2022-08-01T10:45:42;97267.00;;;35.54;35.23
70143;BME280;57509;43.054;-0.040;2022-08-01T10:50:58;97277.47;;;36.04;35.00
70143;BME280;57509;43.054;-0.040;2022-08-01T10:53:30;97282.34;;;36.15;34.55
70143;BME280;57509;43.054;-0.040;2022-08-01T10:56:05;97278.38;;;36.37;33.82
70143;BME280;57509;43.054;-0.040;2022-08-01T10:59:03;97273.59;;;36.59;32.94
70143;BME280;57509;43.054;-0.040;2022-08-01T11:01:39;97265.84;;;36.89;33.09
70143;BME280;57509;43.054;-0.040;2022-08-01T11:04:17;97273.06;;;37.23;32.27
70143;BME280;57509;43.054;-0.040;2022-08-01T11:06:52;97269.66;;;36.72;33.58
70143;BME280;57509;43.054;-0.040;2022-08-01T11:09:29;97281.28;;;37.16;32.24
70143;BME280;57509;43.054;-0.040;2022-08-01T11:17:54;97285.44;;;38.04;31.63
70143;BME280;57509;43.054;-0.040;2022-08-01T11:20:34;97288.13;;;38.13;31.20
70143;BME280;57509;43.054;-0.040;2022-08-01T11:23:16;97273.59;;;38.10;31.35
70143;BME280;57509;43.054;-0.040;2022-08-01T11:28:35;97274.75;;;37.61;32.11
70143;BME280;57509;43.054;-0.040;2022-08-01T11:33:48;97259.88;;;37.60;32.03
70143;BME280;57509;43.054;-0.040;2022-08-01T11:36:17;97265.50;;;37.97;30.78
70143;BME280;57509;43.054;-0.040;2022-08-01T11:41:28;97275.66;;;38.26;31.28
70143;BME280;57509;43.054;-0.040;2022-08-01T11:44:17;97274.34;;;38.48;31.10
70143;BME280;57509;43.054;-0.040;2022-08-01T11:47:04;97267.44;;;38.21;30.54
70143;BME280;57509;43.054;-0.040;2022-08-01T11:49:43;97276.91;;;37.64;31.71
70143;BME280;57509;43.054;-0.040;2022-08-01T11:55:52;97264.91;;;37.91;30.86
70143;BME280;57509;43.054;-0.040;2022-08-01T11:58:30;97266.78;;;38.52;30.83
70143;BME280;57509;43.054;-0.040;2022-08-01T12:01:00;97270.69;;;38.47;30.79
70143;BME280;57509;43.054;-0.040;2022-08-01T12:03:38;97268.75;;;38.35;31.46
70143;BME280;57509;43.054;-0.040;2022-08-01T12:06:31;97276.63;;;38.58;29.68
70143;BME280;57509;43.054;-0.040;2022-08-01T12:09:18;97258.72;;;38.78;29.52
70143;BME280;57509;43.054;-0.040;2022-08-01T12:11:54;97267.88;;;38.75;30.37
70143;BME280;57509;43.054;-0.040;2022-08-01T12:14:23;97280.47;;;38.94;30.26
70143;BME280;57509;43.054;-0.040;2022-08-01T12:16:59;97267.88;;;38.75;29.59
70143;BME280;57509;43.054;-0.040;2022-08-01T12:19:36;97265.25;;;38.54;30.20
70143;BME280;57509;43.054;-0.040;2022-08-01T12:22:15;97251.22;;;38.42;29.62
70143;BME280;57509;43.054;-0.040;2022-08-01T12:25:10;97269.53;;;38.76;30.78
70143;BME280;57509;43.054;-0.040;2022-08-01T12:27:53;97271.53;;;39.35;29.74
70143;BME280;57509;43.054;-0.040;2022-08-01T12:30:21;97261.63;;;39.73;29.49
70143;BME280;57509;43.054;-0.040;2022-08-01T12:33:05;97267.00;;;39.78;28.79
70143;BME280;57509;43.054;-0.040;2022-08-01T12:35:41;97269.78;;;39.94;27.76
70143;BME280;57509;43.054;-0.040;2022-08-01T12:38:19;97272.34;;;39.99;28.17
70143;BME280;57509;43.054;-0.040;2022-08-01T12:40:50;97271.94;;;40.16;28.17
70143;BME280;57509;43.054;-0.040;2022-08-01T12:43:27;97263.97;;;40.22;27.86
70143;BME280;57509;43.054;-0.040;2022-08-01T12:46:06;97261.06;;;40.92;26.75
70143;BME280;57509;43.054;-0.040;2022-08-01T12:48:45;97252.16;;;41.82;26.53
70143;BME280;57509;43.054;-0.040;2022-08-01T12:51:28;97257.03;;;43.87;24.59
70143;BME280;57509;43.054;-0.040;2022-08-01T12:54:15;97263.66;;;44.89;22.84
70143;BME280;57509;43.054;-0.040;2022-08-01T12:56:54;97270.69;;;45.09;21.80
70143;BME280;57509;43.054;-0.040;2022-08-01T12:59:30;97255.59;;;46.51;21.56
70143;BME280;57509;43.054;-0.040;2022-08-01T13:06:09;97267.16;;;48.56;18.69
70143;BME280;57509;43.054;-0.040;2022-08-01T13:09:24;97251.88;;;48.66;18.42
70143;BME280;57509;43.054;-0.040;2022-08-01T13:12:17;97267.25;;;49.13;17.13
70143;BME280;57509;43.054;-0.040;2022-08-01T13:15:19;97255.63;;;51.05;16.81
70143;BME280;57509;43.054;-0.040;2022-08-01T13:17:57;97242.59;;;52.01;15.82
70143;BME280;57509;43.054;-0.040;2022-08-01T13:20:51;97250.53;;;51.81;14.19
70143;BME280;57509;43.054;-0.040;2022-08-01T13:23:42;97241.50;;;51.63;15.68
70143;BME280;57509;43.054;-0.040;2022-08-01T13:26:48;97243.09;;;51.31;15.93
70143;BME280;57509;43.054;-0.040;2022-08-01T13:29:56;97228.81;;;51.28;15.15
70143;BME280;57509;43.054;-0.040;2022-08-01T13:33:21;97241.56;;;50.31;16.09
70143;BME280;57509;43.054;-0.040;2022-08-01T13:35:56;97230.06;;;52.08;15.78
70143;BME280;57509;43.054;-0.040;2022-08-01T13:38:23;97221.56;;;52.34;14.36
70143;BME280;57509;43.054;-0.040;2022-08-01T13:41:08;97224.59;;;49.93;15.58
70143;BME280;57509;43.054;-0.040;2022-08-01T13:43:49;97219.41;;;50.08;15.60
70143;BME280;57509;43.054;-0.040;2022-08-01T13:46:39;97229.59;;;48.50;17.40
70143;BME280;57509;43.054;-0.040;2022-08-01T13:49:16;97232.81;;;47.77;17.28
70143;BME280;57509;43.054;-0.040;2022-08-01T13:51:41;97218.78;;;48.27;18.22
70143;BME280;57509;43.054;-0.040;2022-08-01T13:54:18;97235.16;;;49.76;17.00
70143;BME280;57509;43.054;-0.040;2022-08-01T13:57:08;97225.06;;;50.75;15.99
70143;BME280;57509;43.054;-0.040;2022-08-01T13:59:49;97230.44;;;51.09;15.17
70143;BME280;57509;43.054;-0.040;2022-08-01T14:02:45;97212.81;;;50.70;14.74
70143;BME280;57509;43.054;-0.040;2022-08-01T14:05:23;97225.72;;;49.52;17.13
70143;BME280;57509;43.054;-0.040;2022-08-01T14:08:12;97216.28;;;50.22;16.33
70143;BME280;57509;43.054;-0.040;2022-08-01T14:11:18;97214.25;;;49.52;15.72
70143;BME280;57509;43.054;-0.040;2022-08-01T14:13:56;97216.00;;;49.70;16.08